Terminal Aerodrome Forecast
Issued by NWS Cleveland, OH

Home | Current Version | Previous Version | Text Only | Print | Product List | Glossary Off
Versions: 1 2 3 4 5 6 7 8 9 10 11 12 13 14 15 16 17 18 19 20 21 22 23 24 25 26

000
FTUS41 KCLE 241120
TAFCLE
TAF
KCLE 241120Z 2412/2518 16004KT P6SM BKN250
     FM241500 20012KT P6SM SCT050
     FM242000 20012KT P6SM BKN050
     FM250000 20012KT P6SM VCTS OVC050CB
     FM250500 20010KT 6SM -SHRA BR OVC035
     FM251000 20006KT 5SM BR VCSH BKN035 OVC080
     FM251400 22010KT 6SM HZ OVC035=

USA.gov is the U.S. government's official web portal to all federal, state and local government web resources and services.